Terminal Aerodrome Forecast
Issued by NWS Wichita, KS

Home | Current Version | Previous Version | Text Only | Print | Product List | Glossary Off
Versions: 1 2 3 4 5 6 7 8 9 10 11 12 13 14 15 16 17 18 19 20 21 22 23 24 25 26 27 28 29 30

000
FTUS43 KICT 281125
TAFICT
TAF
KICT 281125Z 2812/0112 14007KT 5SM -SN BR OVC025
      TEMPO 2812/2815 2SM -SN BR OVC009
     FM281500 16009KT 6SM -SN OVC025
     FM010600 16006KT 3SM -SN BR BKN009=

USA.gov is the U.S. government's official web portal to all federal, state and local government web resources and services.